Etusivu
METAR-TAF:

METAR-TAF

Lentoasemat :

Estherville Municipal Airport

Estherville, Iowa, Yhdysvallat

Leveyspiiri: 43-24-04N, Pituuspiiri: 094-44-50W, korkeus merenpinnasta: 401 m

Tämänhetkinen sää

Tämä raportti tehtiin 1 tunti ja 5 minuuttia sitten, kello 08.52 UTC
Tuuli 13 kn luoteesta
Lämpötila 5°C
Kosteus 60%
Ilmanpaine 1017 hPa
Näkyvyys: 16.1 km
selkeää

METAR: KEST 260852Z AUTO 32013KT 10SM CLR 05/M02 A3004 RMK AO2 SLP173 T00501017 53004

Aika: 04:57 (09:57 UTC)


TAF: puuttuu

Säähavainnot ja -ennusteet yli 4000 lentoasemalta (METAR- ja TAF-raportit).

Käytössä olevat sääasemat on merkitty karttaan keltaisilla ja punaisilla pisteillä.

Aseta hiiri pisteen päälle nähdäksesi sääaseman nimen.

Klikkaa sitten nähdäksesi säähavainnot ja -ennusteet.

Kartan vaihtaminen: klikkaa mustalla rastilla varustettuja vihreitä pisteitä, niin voit zoomata sisään; viivalla varustettua vihreää pistettä, niin voit zoomata ulos tai vihreitä nuolia, niin pääset viereisille kartoille.


METAR-TAF: